Time;durP1;ratioP1;P1;durP2;ratioP2;P2;SDS_P1;SDS_P2;PMS_P1;PMS_P2;Temp;Humidity;BMP_temperature;BMP_pressure;BME280_temperature;BME280_humidity;BME280_pressure;Samples;Min_cycle;Max_cycle;Signal;HPM_P1;HPM_P2
2024/03/16 00:00:11;;;;;;;5.35;2.13;;;10.60;95.70;;;;;;4865778;29;20204;-83
2024/03/16 00:02:38;;;;;;;2.70;1.25;;;10.50;95.60;;;;;;4867003;29;20553;-83
2024/03/16 00:05:06;;;;;;;5.35;2.28;;;10.40;95.80;;;;;;4878334;29;20219;-83
2024/03/16 00:07:33;;;;;;;1.70;1.20;;;10.30;96.10;;;;;;4851964;29;20254;-83
2024/03/16 00:10:00;;;;;;;3.05;1.30;;;10.30;96.20;;;;;;4846201;29;20208;-84
2024/03/16 00:12:27;;;;;;;7.43;3.10;;;10.30;96.10;;;;;;4885112;29;20315;-83
2024/03/16 00:14:55;;;;;;;5.00;2.13;;;10.20;96.70;;;;;;4863303;29;20212;-82
2024/03/16 00:17:22;;;;;;;3.17;1.38;;;10.20;96.80;;;;;;4868805;29;20200;-82
2024/03/16 00:19:55;;;;;;;2.58;1.60;;;10.00;96.70;;;;;;4878475;29;20275;-83
2024/03/16 00:22:22;;;;;;;1.83;1.35;;;9.90;97.60;;;;;;4878470;29;20251;-82
2024/03/16 00:24:48;;;;;;;3.17;1.52;;;9.80;98.00;;;;;;4879087;29;20222;-83
2024/03/16 00:30:29;;;;;;;4.10;1.85;;;9.80;98.70;;;;;;4861910;29;20284;-82
2024/03/16 00:32:56;;;;;;;1.63;1.23;;;9.80;98.90;;;;;;4845362;29;20600;-83
2024/03/16 00:35:41;;;;;;;3.67;2.15;;;9.80;98.70;;;;;;4845347;29;20193;-82
2024/03/16 00:38:09;;;;;;;5.35;2.22;;;9.90;98.40;;;;;;4844704;29;20204;-82
2024/03/16 00:40:36;;;;;;;3.03;1.60;;;10.00;97.10;;;;;;4844725;29;20216;-82
2024/03/16 00:43:04;;;;;;;3.35;1.65;;;10.00;96.60;;;;;;4844789;29;20562;-82
2024/03/16 00:45:31;;;;;;;2.60;1.20;;;10.20;95.40;;;;;;4847932;29;20234;-82
2024/03/16 00:47:58;;;;;;;2.17;1.30;;;10.40;94.20;;;;;;4847967;29;20205;-82
2024/03/16 00:50:25;;;;;;;1.95;1.52;;;10.40;93.90;;;;;;4848185;29;20205;-83
2024/03/16 00:52:51;;;;;;;1.38;1.02;;;10.40;93.80;;;;;;4851196;29;20224;-83
2024/03/16 00:55:19;;;;;;;1.95;1.48;;;10.30;93.80;;;;;;4881419;29;20207;-83
2024/03/16 01:03:00;;;;;;;1.83;1.30;;;10.20;94.60;;;;;;5030983;23;20230;-82
2024/03/16 01:05:28;;;;;;;3.63;1.52;;;10.40;94.00;;;;;;4902257;29;20214;-82
2024/03/16 01:07:54;;;;;;;5.57;1.30;;;10.40;93.70;;;;;;4923623;29;20292;-82
2024/03/16 01:10:21;;;;;;;2.30;1.42;;;10.30;94.00;;;;;;4887264;29;20654;-82
2024/03/16 01:12:48;;;;;;;2.33;1.23;;;10.40;94.00;;;;;;4903124;29;20230;-82
2024/03/16 01:15:16;;;;;;;1.35;0.98;;;10.50;93.60;;;;;;4887543;29;20217;-82
2024/03/16 01:17:43;;;;;;;1.55;1.40;;;10.60;93.40;;;;;;4903368;29;20620;-82
2024/03/16 01:20:10;;;;;;;1.77;1.30;;;10.50;93.60;;;;;;4903942;29;20210;-82
2024/03/16 01:22:37;;;;;;;3.13;1.20;;;10.50;93.80;;;;;;4902912;29;20218;-82
2024/03/16 01:25:05;;;;;;;1.60;1.25;;;10.40;94.20;;;;;;4909453;29;20207;-82
2024/03/16 01:27:33;;;;;;;2.67;1.33;;;10.40;93.80;;;;;;4902185;29;20290;-82
2024/03/16 01:30:00;;;;;;;1.20;1.10;;;10.40;93.90;;;;;;4907622;29;20198;-83
2024/03/16 01:32:27;;;;;;;2.85;1.25;;;10.30;94.00;;;;;;4917693;29;20207;-82
2024/03/16 01:34:55;;;;;;;2.03;1.30;;;10.30;94.20;;;;;;4904081;29;20667;-82
2024/03/16 01:37:21;;;;;;;1.10;1.00;;;10.30;93.90;;;;;;4917587;29;20210;-82
2024/03/16 01:39:49;;;;;;;2.60;1.58;;;10.20;93.60;;;;;;4917365;29;20207;-82
2024/03/16 01:42:16;;;;;;;1.88;1.20;;;10.20;93.80;;;;;;4918990;29;20198;-82
2024/03/16 01:45:01;;;;;;;1.25;1.08;;;10.20;93.50;;;;;;4892978;29;20563;-90
2024/03/16 01:47:27;;;;;;;1.40;1.20;;;10.30;93.50;;;;;;4899414;29;20203;-83
2024/03/16 01:49:54;;;;;;;1.80;1.17;;;10.30;93.80;;;;;;4900301;29;20674;-83
2024/03/16 01:52:21;;;;;;;1.15;1.00;;;10.20;93.90;;;;;;4915539;29;21191;-82
2024/03/16 01:54:48;;;;;;;1.33;1.00;;;10.20;94.30;;;;;;4900730;29;20684;-82
2024/03/16 01:57:15;;;;;;;0.90;0.90;;;10.00;94.60;;;;;;4915972;29;20237;-82
2024/03/16 01:59:43;;;;;;;1.60;1.10;;;9.90;95.40;;;;;;4918026;29;20715;-82
2024/03/16 02:02:14;;;;;;;1.98;1.00;;;9.70;96.00;;;;;;4901373;29;20227;-82
2024/03/16 02:04:41;;;;;;;2.00;1.30;;;9.70;96.40;;;;;;4878673;29;20222;-83
2024/03/16 02:07:09;;;;;;;1.23;1.13;;;9.70;96.90;;;;;;4889142;29;20195;-82
2024/03/16 02:09:37;;;;;;;1.23;1.10;;;9.70;97.00;;;;;;4885254;29;20813;-83
2024/03/16 02:12:05;;;;;;;1.00;0.90;;;9.60;97.80;;;;;;4906820;29;20203;-82
2024/03/16 02:14:32;;;;;;;3.33;1.15;;;9.60;98.20;;;;;;4900480;29;20219;-82
2024/03/16 02:16:59;;;;;;;1.48;1.08;;;9.60;98.50;;;;;;4890382;29;20208;-82
2024/03/16 02:19:25;;;;;;;1.15;0.80;;;9.50;98.60;;;;;;4884575;29;20669;-82
2024/03/16 02:21:52;;;;;;;1.17;1.08;;;9.50;98.70;;;;;;4888605;29;20224;-82
2024/03/16 02:24:19;;;;;;;1.00;0.88;;;9.50;98.40;;;;;;4897744;29;20214;-82
2024/03/16 02:26:46;;;;;;;1.15;0.82;;;9.40;98.60;;;;;;4921186;29;20213;-82
2024/03/16 02:29:14;;;;;;;2.42;0.80;;;9.40;98.30;;;;;;4897860;29;20199;-82
2024/03/16 02:31:42;;;;;;;2.00;0.73;;;9.30;98.30;;;;;;4916621;29;20281;-82
2024/03/16 02:34:09;;;;;;;0.77;0.75;;;9.30;98.60;;;;;;4882311;29;20226;-82
2024/03/16 02:36:36;;;;;;;1.13;0.93;;;9.20;98.60;;;;;;4884707;29;20214;-82
2024/03/16 02:39:06;;;;;;;0.95;0.82;;;9.30;98.60;;;;;;4890928;29;20194;-82
2024/03/16 02:41:33;;;;;;;0.70;0.70;;;9.20;98.60;;;;;;4889557;29;20198;-88
2024/03/16 02:44:00;;;;;;;0.90;0.90;;;9.20;98.40;;;;;;4899807;29;20463;-82
2024/03/16 02:46:27;;;;;;;0.63;0.63;;;9.20;98.60;;;;;;4900252;29;20213;-82
2024/03/16 02:48:54;;;;;;;0.57;0.55;;;9.20;98.40;;;;;;4899565;29;20242;-83
2024/03/16 02:51:22;;;;;;;1.15;0.50;;;9.20;98.00;;;;;;4883360;29;20600;-82
2024/03/16 02:53:49;;;;;;;0.85;0.50;;;9.10;97.70;;;;;;4915113;29;20231;-82
2024/03/16 02:56:15;;;;;;;0.50;0.50;;;9.00;97.70;;;;;;4905732;29;20742;-84
2024/03/16 02:58:42;;;;;;;0.63;0.50;;;8.90;97.50;;;;;;4905206;29;20202;-82
2024/03/16 03:01:09;;;;;;;0.40;0.40;;;8.80;97.20;;;;;;4890234;29;20202;-82
2024/03/16 03:03:36;;;;;;;0.40;0.40;;;8.80;97.30;;;;;;4885392;29;20217;-82
2024/03/16 03:06:03;;;;;;;0.40;0.40;;;8.80;97.60;;;;;;4916307;29;20206;-82
2024/03/16 03:08:32;;;;;;;0.65;0.50;;;8.70;97.00;;;;;;4891117;29;20237;-84
2024/03/16 03:10:59;;;;;;;0.40;0.40;;;8.70;97.00;;;;;;4898042;29;20203;-83
2024/03/16 03:13:25;;;;;;;1.30;0.40;;;8.70;97.10;;;;;;4896207;29;20245;-82
2024/03/16 03:15:52;;;;;;;1.92;0.60;;;8.70;96.30;;;;;;4900821;29;20213;-82
2024/03/16 03:18:20;;;;;;;0.40;0.40;;;8.80;95.90;;;;;;4884041;29;20213;-82
2024/03/16 03:20:47;;;;;;;0.50;0.40;;;8.90;95.90;;;;;;4899178;29;20290;-82
2024/03/16 03:23:14;;;;;;;0.40;0.40;;;8.90;95.30;;;;;;4901983;29;20290;-84
2024/03/16 03:25:41;;;;;;;0.38;0.38;;;8.80;95.10;;;;;;4885438;29;20661;-82
2024/03/16 03:28:08;;;;;;;0.43;0.40;;;8.80;94.90;;;;;;4899421;29;20199;-82
2024/03/16 03:30:35;;;;;;;0.52;0.40;;;8.70;95.10;;;;;;4884119;29;20210;-82
2024/03/16 03:33:03;;;;;;;1.55;0.40;;;8.60;94.60;;;;;;4882858;29;20206;-83
2024/03/16 03:35:31;;;;;;;0.40;0.40;;;8.50;94.80;;;;;;4890686;29;20194;-82
2024/03/16 03:37:57;;;;;;;0.32;0.32;;;8.60;94.80;;;;;;4882244;29;20221;-82
2024/03/16 03:40:25;;;;;;;1.55;0.40;;;8.60;94.10;;;;;;4902012;29;20646;-82
2024/03/16 03:42:55;;;;;;;0.40;0.40;;;8.50;94.30;;;;;;4877835;29;20207;-82
2024/03/16 03:45:37;;;;;;;0.30;0.30;;;8.40;94.60;;;;;;4896227;29;20194;-83
2024/03/16 03:48:14;;;;;;;0.95;0.32;;;8.20;95.20;;;;;;4923433;29;20221;-83
2024/03/16 03:50:41;;;;;;;0.30;0.30;;;8.20;95.20;;;;;;4906243;29;20209;-82
2024/03/16 03:53:08;;;;;;;0.40;0.40;;;8.20;95.30;;;;;;4900163;29;20268;-82
2024/03/16 03:55:35;;;;;;;0.50;0.50;;;8.10;95.50;;;;;;4906934;29;20213;-82
2024/03/16 03:58:02;;;;;;;0.45;0.45;;;8.00;95.70;;;;;;4908088;29;20221;-82
2024/03/16 04:00:29;;;;;;;0.52;0.52;;;8.00;95.70;;;;;;4898139;29;20622;-82
2024/03/16 04:02:56;;;;;;;0.40;0.40;;;8.00;95.70;;;;;;4890970;29;20207;-82
2024/03/16 04:05:23;;;;;;;0.30;0.30;;;8.00;95.70;;;;;;4913838;29;20682;-82
2024/03/16 04:07:50;;;;;;;0.35;0.35;;;8.10;96.00;;;;;;4911830;29;20210;-82
2024/03/16 04:10:17;;;;;;;0.50;0.50;;;8.00;95.70;;;;;;4915620;29;20224;-83
2024/03/16 04:12:48;;;;;;;0.50;0.50;;;8.10;96.00;;;;;;4920151;29;20194;-82
2024/03/16 04:15:15;;;;;;;0.40;0.40;;;8.20;94.80;;;;;;4899151;29;20229;-82
2024/03/16 04:17:42;;;;;;;0.52;0.52;;;8.20;95.10;;;;;;4897159;29;20653;-82
2024/03/16 04:20:10;;;;;;;0.60;0.60;;;8.10;95.00;;;;;;4910800;29;20198;-82
2024/03/16 04:22:40;;;;;;;0.63;0.40;;;8.20;95.40;;;;;;4905398;29;20266;-83
2024/03/16 04:25:09;;;;;;;0.50;0.50;;;8.20;95.70;;;;;;4890773;29;20220;-82
2024/03/16 04:27:35;;;;;;;0.60;0.60;;;8.40;94.80;;;;;;4891013;29;20221;-82
2024/03/16 04:30:02;;;;;;;0.50;0.50;;;8.60;94.20;;;;;;4916540;29;20751;-84
2024/03/16 04:32:30;;;;;;;0.47;0.40;;;8.70;93.70;;;;;;4910395;29;20259;-82
2024/03/16 04:34:57;;;;;;;0.55;0.55;;;8.70;93.60;;;;;;4896972;29;20226;-82
2024/03/16 04:37:24;;;;;;;0.50;0.50;;;8.80;93.30;;;;;;4895348;29;20209;-82
2024/03/16 04:39:51;;;;;;;0.60;0.60;;;8.70;93.20;;;;;;4886283;29;20230;-82
2024/03/16 04:42:18;;;;;;;0.60;0.60;;;8.70;93.30;;;;;;4912818;29;20234;-83
2024/03/16 04:44:45;;;;;;;0.57;0.50;;;8.60;93.50;;;;;;4916793;29;20286;-82
2024/03/16 04:47:12;;;;;;;0.60;0.60;;;8.60;93.40;;;;;;4888864;29;20202;-84
2024/03/16 04:49:39;;;;;;;0.88;0.60;;;8.50;93.30;;;;;;4910502;29;20206;-82
2024/03/16 04:52:07;;;;;;;1.50;0.57;;;8.50;93.20;;;;;;4895473;29;20207;-82
2024/03/16 04:54:34;;;;;;;0.60;0.60;;;8.50;93.10;;;;;;4903795;29;20227;-82
2024/03/16 04:57:00;;;;;;;0.47;0.47;;;8.50;93.10;;;;;;4911265;29;20218;-82
2024/03/16 04:59:27;;;;;;;0.60;0.60;;;8.50;92.90;;;;;;4904263;29;20209;-82
2024/03/16 05:01:57;;;;;;;0.50;0.50;;;8.50;93.10;;;;;;4879732;29;20220;-82
2024/03/16 05:04:24;;;;;;;0.60;0.60;;;8.40;93.40;;;;;;4915442;29;20222;-82
2024/03/16 05:06:52;;;;;;;0.45;0.40;;;8.50;93.50;;;;;;4920593;29;20582;-82
2024/03/16 05:09:18;;;;;;;0.50;0.50;;;8.50;93.40;;;;;;4894316;29;20205;-83
2024/03/16 05:11:45;;;;;;;0.38;0.38;;;8.50;93.40;;;;;;4918859;29;20234;-82
2024/03/16 05:14:12;;;;;;;0.40;0.40;;;8.50;93.30;;;;;;4872680;29;20227;-82
2024/03/16 05:16:39;;;;;;;0.30;0.30;;;8.40;93.50;;;;;;4904056;29;20293;-82
2024/03/16 05:19:06;;;;;;;0.82;0.45;;;8.40;93.70;;;;;;4886691;29;20219;-82
2024/03/16 05:21:34;;;;;;;0.50;0.50;;;8.40;93.90;;;;;;4886560;29;20209;-82
2024/03/16 05:24:01;;;;;;;0.50;0.50;;;8.50;93.60;;;;;;4917027;29;20210;-82
2024/03/16 05:26:28;;;;;;;0.70;0.70;;;8.60;93.50;;;;;;4891514;29;20627;-82
2024/03/16 05:28:55;;;;;;;0.50;0.50;;;8.60;93.10;;;;;;4903364;29;20209;-84
2024/03/16 05:31:22;;;;;;;0.57;0.57;;;8.70;92.50;;;;;;4892414;29;20195;-82
2024/03/16 05:33:49;;;;;;;0.43;0.43;;;8.70;92.60;;;;;;4902148;29;20230;-82
2024/03/16 05:36:16;;;;;;;0.60;0.57;;;8.80;92.60;;;;;;4906263;29;20270;-82
2024/03/16 05:38:45;;;;;;;0.70;0.70;;;8.80;92.70;;;;;;4918579;29;20210;-82
2024/03/16 05:41:12;;;;;;;0.52;0.52;;;8.90;92.30;;;;;;4917310;29;20202;-82
2024/03/16 05:43:41;;;;;;;0.50;0.43;;;8.90;91.80;;;;;;4887754;29;20214;-82
2024/03/16 05:46:08;;;;;;;0.50;0.50;;;8.80;92.20;;;;;;4896907;29;20564;-83
2024/03/16 05:48:35;;;;;;;0.45;0.45;;;8.70;92.40;;;;;;4901384;29;20203;-82
2024/03/16 05:51:02;;;;;;;0.45;0.45;;;8.70;92.80;;;;;;4900932;29;20282;-83
2024/03/16 05:53:30;;;;;;;0.50;0.50;;;8.90;92.30;;;;;;4899306;29;20199;-82
2024/03/16 05:55:57;;;;;;;0.50;0.50;;;8.80;92.10;;;;;;4897042;29;20230;-83
2024/03/16 05:58:24;;;;;;;0.60;0.60;;;8.90;91.90;;;;;;4903585;29;20202;-82
2024/03/16 06:00:51;;;;;;;0.40;0.40;;;8.80;92.00;;;;;;4902864;29;20198;-82
2024/03/16 06:03:18;;;;;;;0.80;0.80;;;8.90;91.90;;;;;;4901583;29;20218;-84
2024/03/16 06:05:47;;;;;;;0.82;0.55;;;9.00;92.20;;;;;;4918191;29;20217;-82
2024/03/16 06:08:14;;;;;;;1.13;0.70;;;9.00;91.90;;;;;;4885366;29;20290;-82
2024/03/16 06:10:41;;;;;;;0.52;0.50;;;9.00;91.30;;;;;;4921009;29;20205;-82
2024/03/16 06:13:10;;;;;;;1.15;0.50;;;9.10;90.90;;;;;;4901959;29;20334;-82
2024/03/16 06:15:39;;;;;;;2.05;0.70;;;9.20;90.60;;;;;;4910666;29;20238;-82
2024/03/16 06:18:06;;;;;;;0.50;0.50;;;9.10;90.90;;;;;;4895770;29;20729;-82
2024/03/16 06:20:33;;;;;;;0.73;0.73;;;9.10;90.90;;;;;;4914506;29;20211;-82
2024/03/16 06:23:06;;;;;;;0.65;0.65;;;9.10;90.50;;;;;;4883375;29;20199;-83
2024/03/16 06:25:40;;;;;;;1.00;0.70;;;9.20;90.50;;;;;;4886580;29;20254;-82
2024/03/16 06:28:09;;;;;;;0.65;0.40;;;9.30;90.50;;;;;;4920902;29;20665;-83
2024/03/16 06:30:36;;;;;;;0.52;0.50;;;9.30;90.50;;;;;;4906202;29;20206;-82
2024/03/16 06:33:08;;;;;;;0.50;0.50;;;9.30;90.50;;;;;;4907215;29;20209;-82
2024/03/16 06:35:36;;;;;;;0.93;0.60;;;9.40;90.50;;;;;;4900275;29;20222;-83
2024/03/16 06:38:03;;;;;;;0.68;0.68;;;9.50;89.40;;;;;;4898860;29;20207;-85
2024/03/16 06:40:30;;;;;;;0.75;0.65;;;9.60;88.30;;;;;;4904804;29;20544;-83
2024/03/16 06:42:57;;;;;;;0.50;0.50;;;9.60;88.40;;;;;;4917342;29;20298;-83
2024/03/16 06:45:24;;;;;;;0.40;0.40;;;9.60;86.40;;;;;;4920932;29;20205;-83
2024/03/16 06:48:51;;;;;;;0.40;0.35;;;9.60;86.90;;;;;;4921427;29;20204;-82
2024/03/16 07:16:58;;;;;;;1.02;0.50;;;11.70;65.00;;;;;;4880931;29;20259;-84
2024/03/16 07:19:25;;;;;;;0.73;0.50;;;11.70;67.00;;;;;;4880243;29;20192;-84
2024/03/16 07:33:04;;;;;;;0.50;0.50;;;12.10;63.20;;;;;;4880439;29;20191;-85
2024/03/16 07:35:32;;;;;;;0.98;0.80;;;12.10;62.10;;;;;;4879773;29;20232;-86
2024/03/16 07:37:59;;;;;;;1.92;0.80;;;12.10;62.30;;;;;;4878317;29;20220;-86
2024/03/16 07:40:26;;;;;;;0.70;0.70;;;12.20;61.00;;;;;;4878822;29;20204;-82
2024/03/16 07:42:53;;;;;;;0.80;0.50;;;12.60;61.30;;;;;;4879154;29;20210;-83
2024/03/16 07:45:21;;;;;;;0.73;0.50;;;12.90;56.10;;;;;;4894175;29;20203;-82
2024/03/16 07:54:42;;;;;;;0.90;0.60;;;13.30;49.80;;;;;;4890190;29;20598;-84
2024/03/16 08:00:35;;;;;;;1.17;0.50;;;13.10;51.50;;;;;;4926714;29;20285;-85
2024/03/16 08:03:03;;;;;;;1.15;0.70;;;13.00;54.10;;;;;;4905045;29;20225;-88
2024/03/16 08:05:32;;;;;;;1.33;0.70;;;13.30;54.00;;;;;;4888095;29;20203;-85
2024/03/16 08:07:59;;;;;;;1.20;0.70;;;13.70;50.20;;;;;;4905388;29;20733;-85
2024/03/16 08:10:26;;;;;;;0.70;0.70;;;14.10;47.30;;;;;;4915686;29;20209;-84
2024/03/16 08:12:54;;;;;;;0.85;0.63;;;13.80;47.60;;;;;;4910912;29;20684;-87
2024/03/16 08:15:21;;;;;;;0.93;0.77;;;13.60;50.10;;;;;;4908596;29;20651;-86
2024/03/16 08:17:51;;;;;;;9.35;6.78;;;13.40;49.90;;;;;;4907811;29;20620;-85
2024/03/16 08:20:18;;;;;;;1.85;1.42;;;13.40;49.90;;;;;;4923822;29;20250;-86
2024/03/16 08:22:48;;;;;;;0.50;0.50;;;13.40;49.90;;;;;;4908059;29;20217;-83
2024/03/16 08:25:15;;;;;;;2.13;1.40;;;13.40;49.90;;;;;;4902181;29;20206;-86
2024/03/16 08:41:28;;;;;;;1.10;0.60;;;13.50;50.00;;;;;;4923845;29;20214;-84
2024/03/16 08:47:21;;;;;;;0.70;0.70;;;13.80;48.60;;;;;;4923643;29;20197;-84
2024/03/16 08:49:53;;;;;;;2.33;0.77;;;13.80;48.70;;;;;;4906365;29;20286;-85
2024/03/16 08:52:22;;;;;;;4.25;2.63;;;14.20;47.90;;;;;;4906497;29;20198;-85
2024/03/16 08:54:54;;;;;;;5.35;4.63;;;14.40;45.30;;;;;;4897592;29;20222;-84
2024/03/16 08:57:21;;;;;;;2.08;0.57;;;14.70;44.20;;;;;;4890768;29;20231;-85
2024/03/16 08:59:48;;;;;;;1.25;0.73;;;14.70;42.00;;;;;;4859397;29;20208;-86
2024/03/16 09:02:46;;;;;;;3.40;1.95;;;14.60;44.20;;;;;;4899681;29;20208;-85
2024/03/16 09:05:14;;;;;;;0.80;0.70;;;14.30;42.40;;;;;;4885605;29;20209;-88
2024/03/16 09:07:41;;;;;;;1.30;0.90;;;14.20;45.00;;;;;;4901857;29;20302;-87
2024/03/16 09:10:10;;;;;;;1.25;0.82;;;14.00;44.70;;;;;;4895994;29;20207;-87
2024/03/16 09:12:37;;;;;;;1.63;0.70;;;13.70;46.30;;;;;;4902078;29;20241;-86
2024/03/16 09:15:06;;;;;;;2.42;1.88;;;13.50;47.80;;;;;;4920127;29;20214;-85
2024/03/16 09:17:40;;;;;;;1.08;0.80;;;13.50;50.00;;;;;;4915883;29;20242;-86
2024/03/16 09:20:07;;;;;;;2.58;0.75;;;13.70;50.10;;;;;;4882983;29;20203;-87
2024/03/16 09:22:34;;;;;;;1.50;0.88;;;13.80;48.20;;;;;;4865254;29;20215;-86
2024/03/16 09:25:00;;;;;;;1.80;1.08;;;14.00;48.10;;;;;;4877144;29;20219;-86
2024/03/16 09:27:28;;;;;;;1.75;0.93;;;14.00;46.20;;;;;;4891496;29;20215;-87
2024/03/16 09:29:55;;;;;;;2.60;1.05;;;13.90;44.40;;;;;;4864569;29;20208;-88
2024/03/16 09:32:22;;;;;;;1.00;0.52;;;13.80;48.30;;;;;;4866551;29;20204;-88
2024/03/16 09:34:49;;;;;;;1.10;1.00;;;13.90;48.40;;;;;;4867233;29;20227;-88
2024/03/16 09:37:16;;;;;;;2.45;0.80;;;14.00;47.40;;;;;;4867290;29;20221;-86
2024/03/16 09:39:43;;;;;;;1.98;0.90;;;14.10;46.10;;;;;;4867825;29;20560;-91
2024/03/16 09:42:10;;;;;;;1.40;0.80;;;14.10;47.60;;;;;;4878532;29;20208;-84
2024/03/16 09:44:38;;;;;;;1.83;0.90;;;13.90;46.50;;;;;;4899269;29;20267;-83
2024/03/16 09:47:05;;;;;;;3.47;1.08;;;13.80;46.70;;;;;;4899343;29;20199;-85
2024/03/16 09:49:35;;;;;;;3.08;1.10;;;13.90;47.90;;;;;;4900305;29;20258;-85
2024/03/16 09:52:05;;;;;;;2.10;0.80;;;14.20;46.00;;;;;;4900870;29;20214;-85
2024/03/16 09:54:37;;;;;;;3.60;0.90;;;14.30;45.50;;;;;;4894332;29;20211;-85
2024/03/16 09:59:58;;;;;;;2.25;1.20;;;15.50;37.20;;;;;;5228897;23;20257;-83
2024/03/16 10:02:24;;;;;;;2.92;1.17;;;16.30;29.50;;;;;;4882591;29;20211;-84
2024/03/16 10:05:13;;;;;;;2.33;1.05;;;16.60;29.20;;;;;;4894871;29;20200;-86
2024/03/16 10:07:40;;;;;;;1.55;1.00;;;16.80;28.00;;;;;;4866020;29;20227;-88
2024/03/16 10:10:10;;;;;;;1.48;0.85;;;17.20;25.70;;;;;;4864257;29;20250;-90
2024/03/16 10:12:38;;;;;;;2.83;1.00;;;17.10;24.90;;;;;;4851527;29;20566;-87
2024/03/16 10:43:24;;;;;;;2.30;1.02;;;15.20;28.10;;;;;;4881323;29;20194;-86
2024/03/16 11:14:16;;;;;;;2.22;0.80;;;16.70;23.50;;;;;;5546664;23;20229;-84
2024/03/16 11:16:46;;;;;;;1.75;0.70;;;16.20;26.10;;;;;;4904396;29;20233;-86
2024/03/16 11:22:11;;;;;;;1.85;0.73;;;16.00;27.00;;;;;;4859310;29;20649;-86
2024/03/16 11:28:00;;;;;;;0.80;0.63;;;16.00;28.70;;;;;;4933961;29;20193;-85
2024/03/16 11:30:27;;;;;;;1.45;0.65;;;15.70;27.20;;;;;;4916542;29;20218;-85
2024/03/16 11:33:11;;;;;;;0.98;0.70;;;15.50;28.30;;;;;;4894516;29;20662;-84
2024/03/16 11:35:38;;;;;;;3.03;0.73;;;15.50;28.30;;;;;;4900024;29;20320;-85
2024/03/16 11:38:10;;;;;;;2.60;0.80;;;15.10;28.00;;;;;;4885471;29;20203;-85
2024/03/16 11:40:37;;;;;;;0.73;0.70;;;15.00;31.00;;;;;;4892571;29;20222;-87
2024/03/16 11:43:04;;;;;;;0.82;0.70;;;15.00;30.50;;;;;;4904306;29;20645;-86
2024/03/16 11:45:33;;;;;;;0.55;0.55;;;15.00;29.20;;;;;;4919737;29;20191;-86
2024/03/16 11:47:59;;;;;;;0.57;0.57;;;14.90;31.60;;;;;;4886127;29;20637;-86
2024/03/16 11:50:39;;;;;;;1.25;0.65;;;14.80;30.90;;;;;;4885882;29;20230;-86
2024/03/16 11:56:33;;;;;;;0.80;0.80;;;14.50;33.10;;;;;;5013081;23;20234;-87
2024/03/16 11:59:03;;;;;;;0.75;0.63;;;14.50;34.60;;;;;;4916887;29;20233;-85
2024/03/16 12:01:34;;;;;;;1.30;0.73;;;14.50;34.40;;;;;;4916571;29;20693;-86
2024/03/16 12:04:37;;;;;;;0.70;0.50;;;14.60;34.50;;;;;;4901653;29;20195;-86
2024/03/16 12:07:03;;;;;;;0.93;0.65;;;14.60;35.10;;;;;;4897322;29;20198;-85
2024/03/16 12:09:34;;;;;;;0.85;0.77;;;14.90;35.90;;;;;;4908830;29;20210;-87
2024/03/16 12:12:00;;;;;;;0.60;0.60;;;15.30;33.20;;;;;;4900361;29;20673;-86
2024/03/16 12:14:34;;;;;;;0.70;0.60;;;15.60;31.80;;;;;;4916813;29;20199;-86
2024/03/16 12:17:00;;;;;;;2.28;0.70;;;15.70;31.40;;;;;;4874631;29;20278;-86
2024/03/16 12:19:28;;;;;;;1.60;0.75;;;15.50;29.80;;;;;;4920669;29;20234;-86
2024/03/16 12:21:54;;;;;;;0.85;0.55;;;15.00;31.10;;;;;;4913465;29;20314;-87
2024/03/16 12:24:21;;;;;;;0.82;0.60;;;14.60;33.60;;;;;;4900958;29;20261;-86
2024/03/16 12:26:47;;;;;;;1.20;0.77;;;14.30;34.80;;;;;;4915660;29;20211;-86
2024/03/16 12:29:16;;;;;;;1.33;0.70;;;14.30;35.50;;;;;;4897424;29;20207;-85
2024/03/16 12:31:42;;;;;;;1.40;0.90;;;14.20;35.00;;;;;;4888907;29;20206;-85
2024/03/16 12:34:10;;;;;;;1.17;0.82;;;14.40;36.10;;;;;;4877269;29;20572;-85
2024/03/16 12:36:36;;;;;;;1.95;0.90;;;14.50;34.90;;;;;;4897935;29;20233;-85
2024/03/16 12:39:08;;;;;;;1.60;1.08;;;14.60;34.10;;;;;;4912739;29;20207;-85
2024/03/16 12:41:35;;;;;;;1.20;0.90;;;14.60;32.90;;;;;;4915807;29;20206;-85
2024/03/16 12:44:03;;;;;;;1.33;0.90;;;14.60;32.90;;;;;;4903582;29;20199;-84
2024/03/16 12:46:29;;;;;;;4.30;1.30;;;14.60;33.40;;;;;;4882638;29;20207;-84
2024/03/16 12:48:56;;;;;;;0.98;0.68;;;14.50;35.00;;;;;;4916843;29;20241;-88
2024/03/16 12:51:22;;;;;;;0.70;0.65;;;14.50;34.10;;;;;;4918912;29;20206;-91
2024/03/16 12:53:49;;;;;;;2.60;1.15;;;14.50;34.80;;;;;;4888844;29;20199;-89
2024/03/16 13:00:25;;;;;;;1.27;0.82;;;14.50;32.50;;;;;;4901692;29;20218;-86
2024/03/16 13:02:51;;;;;;;1.30;0.93;;;14.50;32.20;;;;;;4901570;29;20203;-85
2024/03/16 13:05:20;;;;;;;2.45;0.95;;;14.50;35.10;;;;;;4899279;29;20226;-88
2024/03/16 13:07:46;;;;;;;2.05;0.90;;;14.30;32.10;;;;;;4885719;29;20203;-89
2024/03/16 13:10:38;;;;;;;6.80;1.15;;;14.10;33.10;;;;;;4855488;29;20362;-85
2024/03/16 13:19:52;;;;;;;0.88;0.70;;;13.40;44.00;;;;;;4880925;29;20192;-87
2024/03/16 13:22:20;;;;;;;0.40;0.40;;;12.70;48.90;;;;;;4870023;29;20208;-88
2024/03/16 13:28:09;;;;;;;3.40;0.90;;;11.80;66.20;;;;;;4899587;29;20263;-87
2024/03/16 13:30:35;;;;;;;1.17;0.80;;;11.10;90.50;;;;;;4886853;29;20208;-89
2024/03/16 13:33:02;;;;;;;2.72;0.90;;;10.70;93.60;;;;;;4900246;29;20226;-86
2024/03/16 13:35:28;;;;;;;1.42;0.90;;;10.40;95.80;;;;;;4893574;29;20291;-87
2024/03/16 13:37:55;;;;;;;1.67;0.75;;;10.40;96.60;;;;;;4882318;29;20207;-88
2024/03/16 13:40:21;;;;;;;1.27;0.70;;;10.50;96.70;;;;;;4888004;29;20190;-87
2024/03/16 13:46:19;;;;;;;0.90;0.60;;;10.40;95.80;;;;;;4911230;29;20187;-88
2024/03/16 13:48:45;;;;;;;0.50;0.50;;;10.40;96.70;;;;;;4900080;29;20263;-87
2024/03/16 13:54:34;;;;;;;0.70;0.70;;;10.40;96.80;;;;;;4911828;29;20560;-86
2024/03/16 13:57:00;;;;;;;1.77;0.60;;;10.40;95.80;;;;;;4899362;29;20325;-85
2024/03/16 13:59:27;;;;;;;3.28;0.88;;;10.30;96.00;;;;;;4887227;29;20272;-86
2024/03/16 14:01:53;;;;;;;2.20;0.98;;;10.30;95.80;;;;;;4878058;29;20226;-86
2024/03/16 14:04:20;;;;;;;0.77;0.68;;;10.20;95.80;;;;;;4866248;29;20207;-87
2024/03/16 14:06:46;;;;;;;1.60;0.60;;;10.10;97.20;;;;;;4889034;29;20203;-86
2024/03/16 14:09:14;;;;;;;5.80;1.10;;;9.90;97.40;;;;;;4871029;29;20218;-85
2024/03/16 14:11:40;;;;;;;0.65;0.60;;;9.70;98.60;;;;;;4883693;29;20214;-83
2024/03/16 14:14:08;;;;;;;0.60;0.60;;;9.70;98.80;;;;;;4889465;29;20209;-85
2024/03/16 14:16:34;;;;;;;0.57;0.57;;;9.60;99.70;;;;;;4896739;29;20242;-85
2024/03/16 14:19:01;;;;;;;0.63;0.63;;;9.60;99.80;;;;;;4882242;29;20208;-88
2024/03/16 14:21:28;;;;;;;0.65;0.63;;;9.60;99.90;;;;;;4879863;29;20225;-86
2024/03/16 14:23:54;;;;;;;0.80;0.80;;;9.70;99.90;;;;;;4855526;29;20207;-87
2024/03/16 14:26:21;;;;;;;1.55;0.82;;;9.90;99.70;;;;;;4877395;29;20213;-84
2024/03/16 14:28:49;;;;;;;0.80;0.80;;;10.10;99.10;;;;;;4876795;29;20686;-86
2024/03/16 14:31:16;;;;;;;0.80;0.80;;;10.40;98.40;;;;;;4867779;29;20286;-86
2024/03/16 14:33:42;;;;;;;1.48;0.80;;;10.60;96.90;;;;;;4858576;29;20569;-85
2024/03/16 14:36:09;;;;;;;0.70;0.70;;;10.80;96.00;;;;;;4886504;29;20216;-86
2024/03/16 14:38:36;;;;;;;2.03;0.80;;;11.00;95.90;;;;;;4887627;29;20207;-87
2024/03/16 14:41:04;;;;;;;1.65;0.70;;;11.00;95.90;;;;;;4872495;29;20223;-85
2024/03/16 14:43:30;;;;;;;1.42;0.90;;;11.00;95.90;;;;;;4874306;29;20211;-85
2024/03/16 14:45:57;;;;;;;2.88;0.70;;;11.10;96.00;;;;;;4885817;29;20207;-85
2024/03/16 14:48:24;;;;;;;1.83;0.90;;;11.00;95.00;;;;;;4864023;29;20214;-84
2024/03/16 14:50:52;;;;;;;3.25;1.05;;;11.10;95.80;;;;;;4870503;29;20208;-83
2024/03/16 14:53:18;;;;;;;2.95;1.10;;;11.00;95.60;;;;;;4898193;29;20258;-84
2024/03/16 14:55:45;;;;;;;3.45;0.93;;;11.20;96.00;;;;;;4868051;29;20191;-83
2024/03/16 15:31:50;;;;;;;0.93;0.80;;;10.90;96.50;;;;;;4915517;29;20226;-82
2024/03/16 15:34:16;;;;;;;1.15;0.80;;;10.90;96.70;;;;;;4883871;29;20194;-82
2024/03/16 15:36:44;;;;;;;2.50;0.90;;;11.00;96.00;;;;;;4898847;29;20258;-86
2024/03/16 15:39:12;;;;;;;4.18;1.00;;;11.00;95.90;;;;;;4898729;29;20650;-85
2024/03/16 15:41:41;;;;;;;1.00;0.90;;;10.90;95.90;;;;;;4899014;29;20615;-86
2024/03/16 15:44:07;;;;;;;1.10;1.00;;;11.00;96.10;;;;;;4897797;29;20568;-84
2024/03/16 15:46:36;;;;;;;1.98;1.27;;;10.90;95.90;;;;;;4897110;29;20217;-84
2024/03/16 15:49:03;;;;;;;1.70;0.90;;;11.00;96.20;;;;;;4913460;29;20258;-90
2024/03/16 15:51:31;;;;;;;1.13;1.00;;;11.00;95.90;;;;;;4907442;29;20198;-85
2024/03/16 15:53:58;;;;;;;1.15;0.90;;;11.10;96.00;;;;;;4899874;29;20211;-85
2024/03/16 15:56:25;;;;;;;1.77;1.00;;;11.10;96.00;;;;;;4902069;29;20299;-85
2024/03/16 15:58:53;;;;;;;1.40;0.80;;;11.10;96.00;;;;;;4886102;29;20550;-84
2024/03/16 16:01:19;;;;;;;1.38;0.82;;;11.10;95.50;;;;;;4930367;29;20216;-83
2024/03/16 16:03:46;;;;;;;0.85;0.63;;;11.10;95.00;;;;;;4907939;29;20210;-84
2024/03/16 16:06:12;;;;;;;1.42;1.00;;;11.20;95.40;;;;;;4898699;29;20234;-87
2024/03/16 16:08:40;;;;;;;1.23;1.13;;;11.20;94.90;;;;;;4882625;29;20309;-88
2024/03/16 16:11:06;;;;;;;0.93;0.90;;;11.10;94.50;;;;;;4884180;29;20575;-84